sensor_id;sensor_type;location;lat;lon;timestamp;P1;durP1;ratioP1;P2;durP2;ratioP2
75689;SDS011;64303;53.118;9.044;2022-11-20T00:00:03;24.25;;;18.95;;
75689;SDS011;64303;53.118;9.044;2022-11-20T00:02:52;21.55;;;15.07;;
75689;SDS011;64303;53.118;9.044;2022-11-20T00:05:19;19.50;;;15.98;;
75689;SDS011;64303;53.118;9.044;2022-11-20T00:07:47;23.52;;;19.73;;
75689;SDS011;64303;53.118;9.044;2022-11-20T00:10:14;20.80;;;16.17;;
75689;SDS011;64303;53.118;9.044;2022-11-20T00:12:41;23.65;;;17.90;;
75689;SDS011;64303;53.118;9.044;2022-11-20T00:15:08;20.00;;;16.75;;
75689;SDS011;64303;53.118;9.044;2022-11-20T00:17:35;18.65;;;16.65;;
75689;SDS011;64303;53.118;9.044;2022-11-20T00:20:02;18.63;;;16.52;;
75689;SDS011;64303;53.118;9.044;2022-11-20T00:22:30;23.58;;;15.35;;
75689;SDS011;64303;53.118;9.044;2022-11-20T00:24:58;20.35;;;16.52;;
75689;SDS011;64303;53.118;9.044;2022-11-20T00:27:24;20.38;;;17.75;;
75689;SDS011;64303;53.118;9.044;2022-11-20T00:29:51;23.30;;;17.45;;
75689;SDS011;64303;53.118;9.044;2022-11-20T00:32:18;23.65;;;18.27;;
75689;SDS011;64303;53.118;9.044;2022-11-20T00:34:44;22.33;;;15.77;;
75689;SDS011;64303;53.118;9.044;2022-11-20T00:37:11;22.10;;;17.17;;
75689;SDS011;64303;53.118;9.044;2022-11-20T00:39:37;23.10;;;15.80;;
75689;SDS011;64303;53.118;9.044;2022-11-20T00:42:06;21.52;;;16.85;;
75689;SDS011;64303;53.118;9.044;2022-11-20T00:44:32;20.60;;;14.45;;
75689;SDS011;64303;53.118;9.044;2022-11-20T00:46:59;20.05;;;16.77;;
75689;SDS011;64303;53.118;9.044;2022-11-20T00:49:25;22.85;;;16.85;;
75689;SDS011;64303;53.118;9.044;2022-11-20T00:51:52;22.95;;;16.13;;
75689;SDS011;64303;53.118;9.044;2022-11-20T00:54:19;22.38;;;18.75;;
75689;SDS011;64303;53.118;9.044;2022-11-20T00:56:45;22.00;;;16.35;;
75689;SDS011;64303;53.118;9.044;2022-11-20T00:59:13;21.25;;;17.88;;
75689;SDS011;64303;53.118;9.044;2022-11-20T01:01:40;19.52;;;17.17;;
75689;SDS011;64303;53.118;9.044;2022-11-20T01:04:07;18.27;;;14.80;;
75689;SDS011;64303;53.118;9.044;2022-11-20T01:06:34;24.83;;;15.77;;
75689;SDS011;64303;53.118;9.044;2022-11-20T01:09:03;20.08;;;15.35;;
75689;SDS011;64303;53.118;9.044;2022-11-20T01:11:31;19.73;;;15.18;;
75689;SDS011;64303;53.118;9.044;2022-11-20T01:13:59;19.90;;;15.23;;
75689;SDS011;64303;53.118;9.044;2022-11-20T01:16:29;18.73;;;14.48;;
75689;SDS011;64303;53.118;9.044;2022-11-20T01:18:58;19.77;;;14.93;;
75689;SDS011;64303;53.118;9.044;2022-11-20T01:21:26;21.23;;;15.68;;
75689;SDS011;64303;53.118;9.044;2022-11-20T01:23:54;17.90;;;15.63;;
75689;SDS011;64303;53.118;9.044;2022-11-20T01:26:21;21.90;;;19.60;;
75689;SDS011;64303;53.118;9.044;2022-11-20T01:28:49;18.17;;;13.00;;
75689;SDS011;64303;53.118;9.044;2022-11-20T01:31:17;15.98;;;13.52;;
75689;SDS011;64303;53.118;9.044;2022-11-20T01:33:47;17.48;;;15.38;;
75689;SDS011;64303;53.118;9.044;2022-11-20T01:36:15;19.70;;;14.40;;
75689;SDS011;64303;53.118;9.044;2022-11-20T01:38:42;23.00;;;14.88;;
75689;SDS011;64303;53.118;9.044;2022-11-20T01:41:09;18.52;;;13.65;;
75689;SDS011;64303;53.118;9.044;2022-11-20T01:43:57;17.08;;;14.38;;
75689;SDS011;64303;53.118;9.044;2022-11-20T01:46:23;16.67;;;13.65;;
75689;SDS011;64303;53.118;9.044;2022-11-20T01:48:52;14.38;;;11.93;;
75689;SDS011;64303;53.118;9.044;2022-11-20T01:51:24;16.17;;;12.85;;
75689;SDS011;64303;53.118;9.044;2022-11-20T01:53:52;18.50;;;15.30;;
75689;SDS011;64303;53.118;9.044;2022-11-20T01:56:20;17.20;;;14.05;;
75689;SDS011;64303;53.118;9.044;2022-11-20T01:58:48;13.98;;;11.20;;
75689;SDS011;64303;53.118;9.044;2022-11-20T02:01:17;19.38;;;15.32;;
75689;SDS011;64303;53.118;9.044;2022-11-20T02:03:44;17.80;;;13.95;;
75689;SDS011;64303;53.118;9.044;2022-11-20T02:06:14;15.60;;;13.90;;
75689;SDS011;64303;53.118;9.044;2022-11-20T02:08:43;18.52;;;14.23;;
75689;SDS011;64303;53.118;9.044;2022-11-20T02:11:10;16.20;;;14.45;;
75689;SDS011;64303;53.118;9.044;2022-11-20T02:13:37;17.90;;;13.07;;
75689;SDS011;64303;53.118;9.044;2022-11-20T02:16:17;18.52;;;15.05;;
75689;SDS011;64303;53.118;9.044;2022-11-20T02:18:46;15.38;;;13.07;;
75689;SDS011;64303;53.118;9.044;2022-11-20T02:21:17;17.48;;;12.13;;
75689;SDS011;64303;53.118;9.044;2022-11-20T02:23:54;14.27;;;11.65;;
75689;SDS011;64303;53.118;9.044;2022-11-20T02:26:24;14.95;;;12.07;;
75689;SDS011;64303;53.118;9.044;2022-11-20T02:28:52;16.45;;;13.77;;
75689;SDS011;64303;53.118;9.044;2022-11-20T02:31:18;17.13;;;13.50;;
75689;SDS011;64303;53.118;9.044;2022-11-20T02:33:45;21.38;;;15.95;;
75689;SDS011;64303;53.118;9.044;2022-11-20T02:36:13;19.00;;;15.82;;
75689;SDS011;64303;53.118;9.044;2022-11-20T02:38:41;16.73;;;13.65;;
75689;SDS011;64303;53.118;9.044;2022-11-20T02:41:10;16.88;;;14.40;;
75689;SDS011;64303;53.118;9.044;2022-11-20T02:43:36;18.10;;;15.10;;
75689;SDS011;64303;53.118;9.044;2022-11-20T02:46:03;16.42;;;13.02;;
75689;SDS011;64303;53.118;9.044;2022-11-20T02:48:33;16.65;;;14.50;;
75689;SDS011;64303;53.118;9.044;2022-11-20T02:51:00;17.60;;;14.32;;
75689;SDS011;64303;53.118;9.044;2022-11-20T02:53:26;15.45;;;13.93;;
75689;SDS011;64303;53.118;9.044;2022-11-20T02:55:53;18.58;;;15.02;;
75689;SDS011;64303;53.118;9.044;2022-11-20T02:58:21;20.92;;;15.23;;
75689;SDS011;64303;53.118;9.044;2022-11-20T03:00:49;15.68;;;13.20;;
75689;SDS011;64303;53.118;9.044;2022-11-20T03:03:16;15.43;;;13.23;;
75689;SDS011;64303;53.118;9.044;2022-11-20T03:05:43;20.02;;;12.38;;
75689;SDS011;64303;53.118;9.044;2022-11-20T03:08:09;18.88;;;15.07;;
75689;SDS011;64303;53.118;9.044;2022-11-20T03:10:36;20.20;;;14.48;;
75689;SDS011;64303;53.118;9.044;2022-11-20T03:13:02;18.92;;;13.40;;
75689;SDS011;64303;53.118;9.044;2022-11-20T03:15:31;15.55;;;12.43;;
75689;SDS011;64303;53.118;9.044;2022-11-20T03:17:57;17.90;;;15.02;;
75689;SDS011;64303;53.118;9.044;2022-11-20T03:20:24;18.08;;;12.85;;
75689;SDS011;64303;53.118;9.044;2022-11-20T03:22:53;18.25;;;14.40;;
75689;SDS011;64303;53.118;9.044;2022-11-20T03:25:19;18.13;;;13.13;;
75689;SDS011;64303;53.118;9.044;2022-11-20T03:27:46;19.52;;;15.43;;
75689;SDS011;64303;53.118;9.044;2022-11-20T03:30:13;15.85;;;14.02;;
75689;SDS011;64303;53.118;9.044;2022-11-20T03:32:41;17.65;;;14.40;;
75689;SDS011;64303;53.118;9.044;2022-11-20T03:37:35;17.30;;;13.50;;
75689;SDS011;64303;53.118;9.044;2022-11-20T03:40:02;18.27;;;13.32;;
75689;SDS011;64303;53.118;9.044;2022-11-20T03:42:29;18.20;;;14.73;;
75689;SDS011;64303;53.118;9.044;2022-11-20T03:45:11;16.05;;;14.45;;
75689;SDS011;64303;53.118;9.044;2022-11-20T03:47:38;18.98;;;13.77;;
75689;SDS011;64303;53.118;9.044;2022-11-20T03:50:06;16.17;;;12.75;;
75689;SDS011;64303;53.118;9.044;2022-11-20T03:52:33;17.63;;;13.57;;
75689;SDS011;64303;53.118;9.044;2022-11-20T03:55:00;15.63;;;12.15;;
75689;SDS011;64303;53.118;9.044;2022-11-20T03:57:27;19.15;;;14.30;;
75689;SDS011;64303;53.118;9.044;2022-11-20T03:59:54;19.42;;;12.68;;
75689;SDS011;64303;53.118;9.044;2022-11-20T04:02:20;16.23;;;12.80;;
75689;SDS011;64303;53.118;9.044;2022-11-20T04:04:47;20.48;;;18.40;;
75689;SDS011;64303;53.118;9.044;2022-11-20T04:07:15;19.02;;;12.77;;
75689;SDS011;64303;53.118;9.044;2022-11-20T04:09:42;17.45;;;14.07;;
75689;SDS011;64303;53.118;9.044;2022-11-20T04:12:08;19.02;;;13.32;;
75689;SDS011;64303;53.118;9.044;2022-11-20T04:14:35;15.95;;;13.40;;
75689;SDS011;64303;53.118;9.044;2022-11-20T04:17:01;15.13;;;13.13;;
75689;SDS011;64303;53.118;9.044;2022-11-20T04:19:30;18.42;;;16.52;;
75689;SDS011;64303;53.118;9.044;2022-11-20T04:21:56;18.35;;;13.75;;
75689;SDS011;64303;53.118;9.044;2022-11-20T04:24:24;14.63;;;12.98;;
75689;SDS011;64303;53.118;9.044;2022-11-20T04:26:51;17.95;;;11.73;;
75689;SDS011;64303;53.118;9.044;2022-11-20T04:29:17;16.65;;;13.60;;
75689;SDS011;64303;53.118;9.044;2022-11-20T04:31:44;17.33;;;12.88;;
75689;SDS011;64303;53.118;9.044;2022-11-20T04:34:11;17.63;;;14.75;;
75689;SDS011;64303;53.118;9.044;2022-11-20T04:36:37;17.00;;;12.07;;
75689;SDS011;64303;53.118;9.044;2022-11-20T04:39:05;21.40;;;15.45;;
75689;SDS011;64303;53.118;9.044;2022-11-20T04:41:34;19.67;;;14.05;;
75689;SDS011;64303;53.118;9.044;2022-11-20T04:44:03;17.05;;;13.45;;
75689;SDS011;64303;53.118;9.044;2022-11-20T04:46:31;19.13;;;13.95;;
75689;SDS011;64303;53.118;9.044;2022-11-20T04:48:58;16.15;;;13.13;;
75689;SDS011;64303;53.118;9.044;2022-11-20T04:51:25;17.60;;;13.32;;
75689;SDS011;64303;53.118;9.044;2022-11-20T04:53:52;19.15;;;14.25;;
75689;SDS011;64303;53.118;9.044;2022-11-20T04:56:19;17.17;;;15.23;;
75689;SDS011;64303;53.118;9.044;2022-11-20T04:58:47;15.55;;;12.90;;
75689;SDS011;64303;53.118;9.044;2022-11-20T05:01:14;17.83;;;13.27;;
75689;SDS011;64303;53.118;9.044;2022-11-20T05:03:42;18.63;;;12.98;;
75689;SDS011;64303;53.118;9.044;2022-11-20T05:06:10;18.50;;;13.07;;
75689;SDS011;64303;53.118;9.044;2022-11-20T05:08:37;17.52;;;12.45;;
75689;SDS011;64303;53.118;9.044;2022-11-20T05:11:04;16.95;;;12.55;;
75689;SDS011;64303;53.118;9.044;2022-11-20T05:13:33;18.35;;;14.85;;
75689;SDS011;64303;53.118;9.044;2022-11-20T05:16:04;18.00;;;14.23;;
75689;SDS011;64303;53.118;9.044;2022-11-20T05:18:33;15.85;;;12.07;;
75689;SDS011;64303;53.118;9.044;2022-11-20T05:20:59;19.02;;;13.88;;
75689;SDS011;64303;53.118;9.044;2022-11-20T05:23:26;20.55;;;12.73;;
75689;SDS011;64303;53.118;9.044;2022-11-20T05:25:54;18.88;;;13.45;;
75689;SDS011;64303;53.118;9.044;2022-11-20T05:28:21;16.33;;;12.60;;
75689;SDS011;64303;53.118;9.044;2022-11-20T05:30:48;17.27;;;14.18;;
75689;SDS011;64303;53.118;9.044;2022-11-20T05:33:17;18.33;;;13.05;;
75689;SDS011;64303;53.118;9.044;2022-11-20T05:35:43;19.48;;;14.18;;
75689;SDS011;64303;53.118;9.044;2022-11-20T05:38:10;16.27;;;12.25;;
75689;SDS011;64303;53.118;9.044;2022-11-20T05:40:37;18.75;;;12.43;;
75689;SDS011;64303;53.118;9.044;2022-11-20T05:43:04;21.17;;;16.15;;
75689;SDS011;64303;53.118;9.044;2022-11-20T05:45:30;17.10;;;14.38;;
75689;SDS011;64303;53.118;9.044;2022-11-20T05:47:57;19.45;;;14.65;;
75689;SDS011;64303;53.118;9.044;2022-11-20T05:50:26;19.10;;;13.80;;
75689;SDS011;64303;53.118;9.044;2022-11-20T05:52:53;14.70;;;12.13;;
75689;SDS011;64303;53.118;9.044;2022-11-20T05:55:20;16.40;;;12.13;;
75689;SDS011;64303;53.118;9.044;2022-11-20T05:57:46;17.15;;;13.88;;
75689;SDS011;64303;53.118;9.044;2022-11-20T06:00:13;16.77;;;12.50;;
75689;SDS011;64303;53.118;9.044;2022-11-20T06:02:41;15.90;;;14.05;;
75689;SDS011;64303;53.118;9.044;2022-11-20T06:05:08;18.90;;;13.60;;
75689;SDS011;64303;53.118;9.044;2022-11-20T06:07:36;20.75;;;13.80;;
75689;SDS011;64303;53.118;9.044;2022-11-20T06:10:03;15.43;;;13.07;;
75689;SDS011;64303;53.118;9.044;2022-11-20T06:12:30;14.60;;;12.50;;
75689;SDS011;64303;53.118;9.044;2022-11-20T06:14:57;16.60;;;14.85;;
75689;SDS011;64303;53.118;9.044;2022-11-20T06:17:24;15.90;;;10.75;;
75689;SDS011;64303;53.118;9.044;2022-11-20T06:19:50;15.07;;;12.38;;
75689;SDS011;64303;53.118;9.044;2022-11-20T06:22:17;14.50;;;12.05;;
75689;SDS011;64303;53.118;9.044;2022-11-20T06:24:45;16.40;;;13.48;;
75689;SDS011;64303;53.118;9.044;2022-11-20T06:27:12;18.48;;;14.68;;
75689;SDS011;64303;53.118;9.044;2022-11-20T06:29:38;12.68;;;11.35;;
75689;SDS011;64303;53.118;9.044;2022-11-20T06:32:05;10.07;;;8.55;;
75689;SDS011;64303;53.118;9.044;2022-11-20T06:34:32;12.18;;;8.50;;
75689;SDS011;64303;53.118;9.044;2022-11-20T06:36:58;11.20;;;9.27;;
75689;SDS011;64303;53.118;9.044;2022-11-20T06:39:25;12.18;;;8.13;;
75689;SDS011;64303;53.118;9.044;2022-11-20T06:41:53;10.95;;;9.30;;
75689;SDS011;64303;53.118;9.044;2022-11-20T06:44:20;10.52;;;8.95;;
75689;SDS011;64303;53.118;9.044;2022-11-20T06:46:46;12.05;;;7.75;;
75689;SDS011;64303;53.118;9.044;2022-11-20T06:49:13;11.45;;;7.72;;
75689;SDS011;64303;53.118;9.044;2022-11-20T06:51:40;10.48;;;9.13;;
75689;SDS011;64303;53.118;9.044;2022-11-20T06:54:06;12.27;;;9.32;;
75689;SDS011;64303;53.118;9.044;2022-11-20T06:56:33;13.88;;;11.98;;
75689;SDS011;64303;53.118;9.044;2022-11-20T06:59:04;13.75;;;9.90;;
75689;SDS011;64303;53.118;9.044;2022-11-20T07:01:31;12.38;;;11.00;;
75689;SDS011;64303;53.118;9.044;2022-11-20T07:03:58;13.45;;;9.07;;
75689;SDS011;64303;53.118;9.044;2022-11-20T07:06:25;13.52;;;11.95;;
75689;SDS011;64303;53.118;9.044;2022-11-20T07:08:51;16.00;;;11.23;;
75689;SDS011;64303;53.118;9.044;2022-11-20T07:11:18;13.48;;;11.27;;
75689;SDS011;64303;53.118;9.044;2022-11-20T07:13:45;12.90;;;9.75;;
75689;SDS011;64303;53.118;9.044;2022-11-20T07:16:13;13.45;;;11.85;;
75689;SDS011;64303;53.118;9.044;2022-11-20T07:18:40;14.50;;;12.15;;
75689;SDS011;64303;53.118;9.044;2022-11-20T07:21:07;12.40;;;10.07;;
75689;SDS011;64303;53.118;9.044;2022-11-20T07:23:35;12.18;;;10.60;;
75689;SDS011;64303;53.118;9.044;2022-11-20T07:26:03;14.57;;;12.25;;
75689;SDS011;64303;53.118;9.044;2022-11-20T07:28:30;13.48;;;11.30;;
75689;SDS011;64303;53.118;9.044;2022-11-20T07:30:57;13.73;;;11.13;;
75689;SDS011;64303;53.118;9.044;2022-11-20T07:33:24;12.00;;;10.80;;
75689;SDS011;64303;53.118;9.044;2022-11-20T07:35:51;13.05;;;11.40;;
75689;SDS011;64303;53.118;9.044;2022-11-20T07:38:18;18.55;;;14.88;;
75689;SDS011;64303;53.118;9.044;2022-11-20T07:40:45;23.95;;;15.70;;
75689;SDS011;64303;53.118;9.044;2022-11-20T07:43:11;21.05;;;15.82;;
75689;SDS011;64303;53.118;9.044;2022-11-20T07:45:38;20.67;;;13.15;;
75689;SDS011;64303;53.118;9.044;2022-11-20T07:48:05;14.10;;;12.40;;
75689;SDS011;64303;53.118;9.044;2022-11-20T07:50:33;16.20;;;14.10;;
75689;SDS011;64303;53.118;9.044;2022-11-20T07:53:00;12.48;;;11.18;;
75689;SDS011;64303;53.118;9.044;2022-11-20T07:55:28;11.88;;;10.68;;
75689;SDS011;64303;53.118;9.044;2022-11-20T07:57:55;12.52;;;11.23;;
75689;SDS011;64303;53.118;9.044;2022-11-20T08:00:22;13.77;;;11.38;;
75689;SDS011;64303;53.118;9.044;2022-11-20T08:02:49;13.70;;;9.85;;
75689;SDS011;64303;53.118;9.044;2022-11-20T08:05:16;14.50;;;12.32;;
75689;SDS011;64303;53.118;9.044;2022-11-20T08:07:44;11.85;;;10.35;;
75689;SDS011;64303;53.118;9.044;2022-11-20T08:12:43;12.10;;;10.82;;
75689;SDS011;64303;53.118;9.044;2022-11-20T08:15:28;17.50;;;10.70;;
75689;SDS011;64303;53.118;9.044;2022-11-20T08:17:58;20.95;;;11.45;;
75689;SDS011;64303;53.118;9.044;2022-11-20T08:20:26;19.90;;;13.48;;
75689;SDS011;64303;53.118;9.044;2022-11-20T08:22:56;15.45;;;13.18;;
75689;SDS011;64303;53.118;9.044;2022-11-20T08:25:24;12.48;;;10.18;;
75689;SDS011;64303;53.118;9.044;2022-11-20T08:27:50;11.98;;;9.40;;
75689;SDS011;64303;53.118;9.044;2022-11-20T08:30:17;13.82;;;12.55;;
75689;SDS011;64303;53.118;9.044;2022-11-20T08:32:44;12.50;;;10.98;;
75689;SDS011;64303;53.118;9.044;2022-11-20T08:35:10;17.23;;;13.57;;
75689;SDS011;64303;53.118;9.044;2022-11-20T08:37:37;12.68;;;10.70;;
75689;SDS011;64303;53.118;9.044;2022-11-20T08:40:09;11.90;;;10.27;;
75689;SDS011;64303;53.118;9.044;2022-11-20T08:42:36;11.32;;;10.07;;
75689;SDS011;64303;53.118;9.044;2022-11-20T08:45:04;12.07;;;9.65;;
75689;SDS011;64303;53.118;9.044;2022-11-20T08:47:31;10.40;;;8.77;;
75689;SDS011;64303;53.118;9.044;2022-11-20T08:49:57;11.57;;;9.32;;
75689;SDS011;64303;53.118;9.044;2022-11-20T08:52:24;13.40;;;11.60;;
75689;SDS011;64303;53.118;9.044;2022-11-20T08:54:51;13.65;;;8.48;;
75689;SDS011;64303;53.118;9.044;2022-11-20T08:57:19;15.18;;;13.73;;
75689;SDS011;64303;53.118;9.044;2022-11-20T08:59:45;12.38;;;9.77;;
75689;SDS011;64303;53.118;9.044;2022-11-20T09:02:12;11.90;;;10.48;;
75689;SDS011;64303;53.118;9.044;2022-11-20T09:04:39;10.90;;;9.60;;
75689;SDS011;64303;53.118;9.044;2022-11-20T09:07:05;10.88;;;8.50;;
75689;SDS011;64303;53.118;9.044;2022-11-20T09:09:32;12.77;;;10.05;;
75689;SDS011;64303;53.118;9.044;2022-11-20T09:11:58;12.88;;;9.73;;
75689;SDS011;64303;53.118;9.044;2022-11-20T09:14:26;13.82;;;12.45;;
75689;SDS011;64303;53.118;9.044;2022-11-20T09:16:55;13.93;;;11.07;;
75689;SDS011;64303;53.118;9.044;2022-11-20T09:19:23;16.58;;;12.80;;
75689;SDS011;64303;53.118;9.044;2022-11-20T09:21:49;11.55;;;8.93;;
75689;SDS011;64303;53.118;9.044;2022-11-20T09:24:16;14.55;;;9.75;;
75689;SDS011;64303;53.118;9.044;2022-11-20T09:26:43;11.85;;;9.45;;
75689;SDS011;64303;53.118;9.044;2022-11-20T09:29:10;18.65;;;11.93;;
75689;SDS011;64303;53.118;9.044;2022-11-20T09:31:38;18.13;;;13.63;;
75689;SDS011;64303;53.118;9.044;2022-11-20T09:34:04;12.43;;;10.55;;
75689;SDS011;64303;53.118;9.044;2022-11-20T09:36:31;12.95;;;10.82;;
75689;SDS011;64303;53.118;9.044;2022-11-20T09:38:58;9.45;;;8.32;;
75689;SDS011;64303;53.118;9.044;2022-11-20T09:44:19;11.93;;;10.75;;
75689;SDS011;64303;53.118;9.044;2022-11-20T09:46:54;12.80;;;8.93;;
75689;SDS011;64303;53.118;9.044;2022-11-20T09:49:27;12.10;;;10.05;;
75689;SDS011;64303;53.118;9.044;2022-11-20T09:52:00;11.45;;;9.20;;
75689;SDS011;64303;53.118;9.044;2022-11-20T09:54:29;11.45;;;8.75;;
75689;SDS011;64303;53.118;9.044;2022-11-20T09:56:58;15.57;;;11.10;;
75689;SDS011;64303;53.118;9.044;2022-11-20T09:59:32;13.55;;;11.48;;
75689;SDS011;64303;53.118;9.044;2022-11-20T10:02:06;14.77;;;10.98;;
75689;SDS011;64303;53.118;9.044;2022-11-20T10:04:39;15.73;;;13.20;;
75689;SDS011;64303;53.118;9.044;2022-11-20T10:07:11;11.95;;;9.82;;
75689;SDS011;64303;53.118;9.044;2022-11-20T10:09:43;16.17;;;11.05;;
75689;SDS011;64303;53.118;9.044;2022-11-20T10:12:17;14.82;;;11.70;;
75689;SDS011;64303;53.118;9.044;2022-11-20T10:14:50;14.95;;;11.55;;
75689;SDS011;64303;53.118;9.044;2022-11-20T10:17:31;15.27;;;12.15;;
75689;SDS011;64303;53.118;9.044;2022-11-20T10:20:14;15.48;;;11.65;;
75689;SDS011;64303;53.118;9.044;2022-11-20T10:22:46;14.40;;;10.70;;
75689;SDS011;64303;53.118;9.044;2022-11-20T10:25:20;13.38;;;11.80;;
75689;SDS011;64303;53.118;9.044;2022-11-20T10:30:20;13.30;;;10.60;;
75689;SDS011;64303;53.118;9.044;2022-11-20T10:32:52;16.83;;;11.70;;
75689;SDS011;64303;53.118;9.044;2022-11-20T10:35:22;15.15;;;11.65;;
75689;SDS011;64303;53.118;9.044;2022-11-20T10:37:53;13.50;;;11.05;;
75689;SDS011;64303;53.118;9.044;2022-11-20T10:40:25;13.57;;;9.57;;
75689;SDS011;64303;53.118;9.044;2022-11-20T10:42:56;14.18;;;11.95;;
75689;SDS011;64303;53.118;9.044;2022-11-20T10:45:35;14.95;;;10.73;;
75689;SDS011;64303;53.118;9.044;2022-11-20T10:48:10;15.35;;;11.15;;
75689;SDS011;64303;53.118;9.044;2022-11-20T10:50:40;17.27;;;12.45;;
75689;SDS011;64303;53.118;9.044;2022-11-20T10:53:16;16.77;;;13.13;;
75689;SDS011;64303;53.118;9.044;2022-11-20T10:55:50;15.85;;;12.07;;
75689;SDS011;64303;53.118;9.044;2022-11-20T10:58:22;18.52;;;12.50;;
75689;SDS011;64303;53.118;9.044;2022-11-20T11:01:02;12.65;;;9.82;;
75689;SDS011;64303;53.118;9.044;2022-11-20T11:03:31;19.13;;;12.57;;
75689;SDS011;64303;53.118;9.044;2022-11-20T11:05:59;13.90;;;10.80;;
75689;SDS011;64303;53.118;9.044;2022-11-20T11:08:32;16.27;;;13.43;;
75689;SDS011;64303;53.118;9.044;2022-11-20T11:11:02;18.23;;;16.33;;
75689;SDS011;64303;53.118;9.044;2022-11-20T11:13:34;15.88;;;12.65;;
75689;SDS011;64303;53.118;9.044;2022-11-20T11:16:01;17.23;;;11.63;;
75689;SDS011;64303;53.118;9.044;2022-11-20T11:18:31;17.17;;;14.27;;
75689;SDS011;64303;53.118;9.044;2022-11-20T11:20:59;18.45;;;13.13;;
75689;SDS011;64303;53.118;9.044;2022-11-20T11:23:29;15.77;;;13.63;;
75689;SDS011;64303;53.118;9.044;2022-11-20T11:25:59;16.05;;;11.60;;
75689;SDS011;64303;53.118;9.044;2022-11-20T11:28:26;17.48;;;14.93;;
75689;SDS011;64303;53.118;9.044;2022-11-20T11:30:54;18.77;;;14.05;;
75689;SDS011;64303;53.118;9.044;2022-11-20T11:33:21;17.52;;;12.57;;
75689;SDS011;64303;53.118;9.044;2022-11-20T11:35:51;19.08;;;12.93;;
75689;SDS011;64303;53.118;9.044;2022-11-20T11:38:21;16.25;;;12.93;;
75689;SDS011;64303;53.118;9.044;2022-11-20T11:40:50;17.55;;;13.13;;
75689;SDS011;64303;53.118;9.044;2022-11-20T11:43:20;15.75;;;13.15;;
75689;SDS011;64303;53.118;9.044;2022-11-20T11:46:10;17.05;;;12.88;;
75689;SDS011;64303;53.118;9.044;2022-11-20T11:48:54;15.23;;;13.20;;
75689;SDS011;64303;53.118;9.044;2022-11-20T11:51:23;19.88;;;14.77;;
75689;SDS011;64303;53.118;9.044;2022-11-20T11:53:52;15.55;;;13.32;;
75689;SDS011;64303;53.118;9.044;2022-11-20T11:56:18;17.85;;;14.32;;
75689;SDS011;64303;53.118;9.044;2022-11-20T11:58:46;15.35;;;13.75;;
75689;SDS011;64303;53.118;9.044;2022-11-20T12:01:19;13.43;;;11.93;;
75689;SDS011;64303;53.118;9.044;2022-11-20T12:03:52;11.48;;;9.98;;
75689;SDS011;64303;53.118;9.044;2022-11-20T12:06:23;11.82;;;9.07;;
75689;SDS011;64303;53.118;9.044;2022-11-20T12:08:52;14.32;;;12.70;;
75689;SDS011;64303;53.118;9.044;2022-11-20T12:11:23;13.60;;;10.15;;
75689;SDS011;64303;53.118;9.044;2022-11-20T12:13:55;14.95;;;13.32;;
75689;SDS011;64303;53.118;9.044;2022-11-20T12:16:27;14.88;;;11.60;;
75689;SDS011;64303;53.118;9.044;2022-11-20T12:19:02;15.70;;;11.98;;
75689;SDS011;64303;53.118;9.044;2022-11-20T12:21:33;14.48;;;11.65;;
75689;SDS011;64303;53.118;9.044;2022-11-20T12:24:17;12.52;;;10.02;;
75689;SDS011;64303;53.118;9.044;2022-11-20T12:26:58;17.98;;;13.85;;
75689;SDS011;64303;53.118;9.044;2022-11-20T12:29:33;20.88;;;14.60;;
75689;SDS011;64303;53.118;9.044;2022-11-20T12:32:14;22.70;;;14.38;;
75689;SDS011;64303;53.118;9.044;2022-11-20T12:34:56;15.40;;;10.88;;
75689;SDS011;64303;53.118;9.044;2022-11-20T12:37:33;17.23;;;13.18;;
75689;SDS011;64303;53.118;9.044;2022-11-20T12:40:08;19.55;;;17.33;;
75689;SDS011;64303;53.118;9.044;2022-11-20T12:42:47;18.50;;;12.82;;
75689;SDS011;64303;53.118;9.044;2022-11-20T12:45:46;19.70;;;17.70;;
75689;SDS011;64303;53.118;9.044;2022-11-20T12:51:16;25.08;;;17.92;;
75689;SDS011;64303;53.118;9.044;2022-11-20T12:54:00;23.48;;;16.10;;
75689;SDS011;64303;53.118;9.044;2022-11-20T12:56:39;21.00;;;15.07;;
75689;SDS011;64303;53.118;9.044;2022-11-20T12:59:18;22.50;;;14.70;;
75689;SDS011;64303;53.118;9.044;2022-11-20T13:01:50;23.48;;;15.13;;
75689;SDS011;64303;53.118;9.044;2022-11-20T13:04:24;22.95;;;16.20;;
75689;SDS011;64303;53.118;9.044;2022-11-20T13:07:00;22.50;;;16.45;;
75689;SDS011;64303;53.118;9.044;2022-11-20T13:09:29;22.17;;;17.80;;
75689;SDS011;64303;53.118;9.044;2022-11-20T13:11:58;21.05;;;17.83;;
75689;SDS011;64303;53.118;9.044;2022-11-20T13:14:32;20.05;;;15.95;;
75689;SDS011;64303;53.118;9.044;2022-11-20T13:17:04;23.17;;;17.23;;
75689;SDS011;64303;53.118;9.044;2022-11-20T13:19:36;18.70;;;15.20;;
75689;SDS011;64303;53.118;9.044;2022-11-20T13:22:02;19.50;;;14.98;;
75689;SDS011;64303;53.118;9.044;2022-11-20T13:24:31;19.38;;;15.95;;
75689;SDS011;64303;53.118;9.044;2022-11-20T13:27:02;19.15;;;17.23;;
75689;SDS011;64303;53.118;9.044;2022-11-20T13:29:30;18.13;;;14.00;;
75689;SDS011;64303;53.118;9.044;2022-11-20T13:32:02;20.70;;;18.60;;
75689;SDS011;64303;53.118;9.044;2022-11-20T13:34:30;14.48;;;12.15;;
75689;SDS011;64303;53.118;9.044;2022-11-20T13:36:57;19.38;;;11.70;;
75689;SDS011;64303;53.118;9.044;2022-11-20T13:39:26;17.08;;;13.75;;
75689;SDS011;64303;53.118;9.044;2022-11-20T13:41:55;14.48;;;11.98;;
75689;SDS011;64303;53.118;9.044;2022-11-20T13:44:23;15.18;;;12.88;;
75689;SDS011;64303;53.118;9.044;2022-11-20T13:46:51;16.58;;;11.35;;
75689;SDS011;64303;53.118;9.044;2022-11-20T13:49:21;16.73;;;11.63;;
75689;SDS011;64303;53.118;9.044;2022-11-20T13:51:51;14.65;;;11.73;;
75689;SDS011;64303;53.118;9.044;2022-11-20T13:54:36;13.35;;;11.20;;
75689;SDS011;64303;53.118;9.044;2022-11-20T13:57:24;14.07;;;12.30;;
75689;SDS011;64303;53.118;9.044;2022-11-20T14:00:02;16.17;;;13.95;;
75689;SDS011;64303;53.118;9.044;2022-11-20T14:02:36;13.70;;;10.30;;
75689;SDS011;64303;53.118;9.044;2022-11-20T14:05:03;13.00;;;11.55;;
75689;SDS011;64303;53.118;9.044;2022-11-20T14:07:31;12.15;;;10.13;;
75689;SDS011;64303;53.118;9.044;2022-11-20T14:10:02;13.27;;;11.88;;
75689;SDS011;64303;53.118;9.044;2022-11-20T14:12:31;11.68;;;8.73;;
75689;SDS011;64303;53.118;9.044;2022-11-20T14:14:58;15.57;;;11.98;;
75689;SDS011;64303;53.118;9.044;2022-11-20T14:17:29;14.40;;;11.07;;
75689;SDS011;64303;53.118;9.044;2022-11-20T14:19:58;13.15;;;10.45;;
75689;SDS011;64303;53.118;9.044;2022-11-20T14:22:26;13.63;;;9.75;;
75689;SDS011;64303;53.118;9.044;2022-11-20T14:25:00;11.60;;;9.55;;
75689;SDS011;64303;53.118;9.044;2022-11-20T14:27:32;13.05;;;11.80;;
75689;SDS011;64303;53.118;9.044;2022-11-20T14:30:00;11.00;;;8.40;;
75689;SDS011;64303;53.118;9.044;2022-11-20T14:32:28;13.75;;;11.27;;
75689;SDS011;64303;53.118;9.044;2022-11-20T14:34:57;12.73;;;11.05;;
75689;SDS011;64303;53.118;9.044;2022-11-20T14:37:28;14.35;;;9.85;;
75689;SDS011;64303;53.118;9.044;2022-11-20T14:40:00;18.67;;;12.27;;
75689;SDS011;64303;53.118;9.044;2022-11-20T14:42:27;14.75;;;12.30;;
75689;SDS011;64303;53.118;9.044;2022-11-20T14:44:57;16.02;;;10.15;;
75689;SDS011;64303;53.118;9.044;2022-11-20T14:47:25;15.63;;;10.70;;